Time;durP1;ratioP1;P1;durP2;ratioP2;P2;SDS_P1;SDS_P2;PMS_P1;PMS_P2;Temp;Humidity;BMP_temperature;BMP_pressure;BME280_temperature;BME280_humidity;BME280_pressure;Samples;Min_cycle;Max_cycle;Signal;HPM_P1;HPM_P2
2022/02/08 00:01:24;;;;;;;12.10;4.32;;;4.50;99.90;;;;;;4956544;28;20476;-83
2022/02/08 00:03:50;;;;;;;11.52;4.78;;;4.60;99.90;;;;;;4956132;28;20042;-83
2022/02/08 00:08:47;;;;;;;12.18;4.78;;;5.00;99.90;;;;;;4954798;28;20035;-84
2022/02/08 00:11:12;;;;;;;12.20;5.30;;;5.00;99.90;;;;;;4939715;28;20034;-84
2022/02/08 00:13:38;;;;;;;12.82;5.25;;;4.40;99.90;;;;;;4954133;29;20078;-83
2022/02/08 00:16:04;;;;;;;13.82;5.28;;;4.40;99.90;;;;;;4954389;28;20039;-84
2022/02/08 00:18:30;;;;;;;11.73;5.00;;;4.10;99.90;;;;;;4954622;28;20027;-84
2022/02/08 00:20:55;;;;;;;15.20;5.40;;;4.60;99.90;;;;;;4954083;28;20846;-83
2022/02/08 00:23:21;;;;;;;12.05;5.40;;;4.70;99.90;;;;;;4955756;28;20027;-83
2022/02/08 00:25:47;;;;;;;13.85;5.22;;;4.10;99.90;;;;;;4954264;28;20396;-83
2022/02/08 00:28:12;;;;;;;15.07;5.78;;;4.60;99.90;;;;;;4953926;28;20035;-84
2022/02/08 00:30:38;;;;;;;13.55;5.93;;;4.60;99.90;;;;;;4953723;28;20520;-84
2022/02/08 00:33:03;;;;;;;10.50;5.10;;;3.90;99.90;;;;;;4954835;28;20035;-83
2022/02/08 00:35:29;;;;;;;13.80;5.53;;;4.40;99.90;;;;;;4953856;28;20031;-83
2022/02/08 00:37:55;;;;;;;10.88;5.38;;;4.30;99.90;;;;;;4953972;28;20480;-83
2022/02/08 00:40:21;;;;;;;11.45;5.38;;;4.30;99.90;;;;;;4953935;28;20055;-83
2022/02/08 00:42:48;;;;;;;12.55;5.47;;;4.00;99.90;;;;;;4954233;28;20038;-84
2022/02/08 00:47:43;;;;;;;7.78;4.97;;;4.40;99.90;;;;;;4954191;28;20058;-83
2022/02/08 00:50:10;;;;;;;15.02;5.47;;;4.10;99.90;;;;;;4954122;28;20039;-83
2022/02/08 00:52:38;;;;;;;11.88;5.25;;;4.30;99.90;;;;;;4953426;29;20396;-83
2022/02/08 00:55:09;;;;;;;11.40;5.40;;;4.20;99.90;;;;;;4954293;28;20035;-83
2022/02/08 00:57:35;;;;;;;11.88;5.50;;;3.60;99.90;;;;;;4954437;28;20034;-83
2022/02/08 01:00:01;;;;;;;11.65;5.57;;;3.50;99.90;;;;;;4953902;28;20035;-83
2022/02/08 01:02:27;;;;;;;12.35;5.80;;;4.20;99.90;;;;;;4954601;28;20055;-83
2022/02/08 01:04:56;;;;;;;14.25;6.40;;;3.60;99.90;;;;;;4952735;28;20031;-84
2022/02/08 01:07:22;;;;;;;14.50;5.65;;;3.40;99.90;;;;;;4953477;28;20031;-83
2022/02/08 01:12:15;;;;;;;9.82;5.53;;;3.20;99.90;;;;;;4954362;28;20499;-83
2022/02/08 01:14:43;;;;;;;11.57;5.38;;;3.30;99.90;;;;;;4954086;28;20031;-83
2022/02/08 01:17:10;;;;;;;12.35;5.30;;;3.40;99.90;;;;;;4954332;28;20471;-83
2022/02/08 01:19:43;;;;;;;10.65;5.65;;;3.40;99.90;;;;;;4952889;28;20047;-83
2022/02/08 01:22:09;;;;;;;10.95;5.55;;;3.30;99.90;;;;;;4954124;28;20027;-83
2022/02/08 01:24:35;;;;;;;11.43;5.90;;;2.90;99.90;;;;;;4953418;28;20118;-83
2022/02/08 01:27:06;;;;;;;9.43;5.18;;;2.70;99.90;;;;;;4954073;28;20404;-83
2022/02/08 01:29:52;;;;;;;10.18;5.45;;;2.30;99.90;;;;;;4953296;28;20420;-83
2022/02/08 01:37:57;;;;;;;11.40;5.85;;;2.70;99.90;;;;;;4953464;29;20026;-83
2022/02/08 01:48:39;;;;;;;12.38;6.25;;;2.70;99.90;;;;;;4957167;28;20027;-83
2022/02/08 01:51:02;;;;;;;12.27;6.05;;;2.70;99.90;;;;;;4957438;28;20043;-83
2022/02/08 01:53:28;;;;;;;13.30;6.47;;;2.80;99.90;;;;;;4957154;28;20543;-83
2022/02/08 01:55:54;;;;;;;15.98;6.60;;;3.20;99.90;;;;;;4956514;28;20035;-83
2022/02/08 01:58:21;;;;;;;13.98;5.93;;;2.80;99.90;;;;;;4956745;28;20023;-83
2022/02/08 02:00:46;;;;;;;12.88;6.13;;;2.80;99.90;;;;;;4957289;28;20046;-83
2022/02/08 02:03:12;;;;;;;14.43;6.68;;;2.80;99.90;;;;;;4956687;28;20027;-83
2022/02/08 02:05:38;;;;;;;17.02;6.47;;;2.80;99.90;;;;;;4956520;28;20047;-83
2022/02/08 02:08:03;;;;;;;15.68;7.50;;;3.10;99.90;;;;;;4956879;28;20396;-83
2022/02/08 02:10:29;;;;;;;18.15;8.40;;;2.80;99.90;;;;;;4956410;29;20027;-83
2022/02/08 02:12:59;;;;;;;27.60;13.73;;;2.80;99.90;;;;;;4956666;28;20038;-83
2022/02/08 02:15:25;;;;;;;26.95;12.35;;;2.90;99.90;;;;;;4956618;28;20053;-83
2022/02/08 02:17:51;;;;;;;17.10;9.38;;;3.00;99.90;;;;;;4956588;28;20037;-83
2022/02/08 02:20:17;;;;;;;16.25;7.13;;;3.50;99.90;;;;;;4956368;28;20097;-83
2022/02/08 02:22:43;;;;;;;11.80;5.90;;;2.80;99.90;;;;;;4955962;29;20031;-83
2022/02/08 02:25:28;;;;;;;12.23;5.88;;;2.90;99.90;;;;;;4956113;28;20096;-83
2022/02/08 02:27:58;;;;;;;11.98;6.47;;;2.90;99.90;;;;;;4956070;28;20050;-83
2022/02/08 02:30:26;;;;;;;12.10;5.50;;;3.00;99.90;;;;;;4958223;28;20049;-83
2022/02/08 02:32:52;;;;;;;11.32;5.68;;;3.50;99.90;;;;;;4955988;28;20507;-83
2022/02/08 02:35:18;;;;;;;12.48;5.43;;;2.90;99.90;;;;;;4956888;28;20113;-83
2022/02/08 02:37:44;;;;;;;11.45;5.70;;;3.40;99.90;;;;;;4955461;29;20115;-83
2022/02/08 02:40:11;;;;;;;12.38;5.95;;;3.20;99.90;;;;;;4956226;28;20118;-83
2022/02/08 02:42:37;;;;;;;15.80;5.78;;;2.50;99.90;;;;;;4956533;28;20043;-83
2022/02/08 02:45:04;;;;;;;10.40;5.72;;;2.40;99.90;;;;;;4956104;28;20071;-83
2022/02/08 02:47:30;;;;;;;10.88;4.97;;;2.30;99.90;;;;;;4955764;28;20492;-83
2022/02/08 02:49:55;;;;;;;11.50;5.60;;;2.10;99.90;;;;;;4955594;28;20099;-82
2022/02/08 02:52:21;;;;;;;14.50;5.93;;;2.20;99.90;;;;;;4955419;28;20023;-83
2022/02/08 02:54:48;;;;;;;12.48;5.88;;;2.30;99.90;;;;;;4955743;28;20019;-83
2022/02/08 02:57:15;;;;;;;15.38;5.78;;;2.40;99.90;;;;;;4955850;28;20031;-83
2022/02/08 02:59:42;;;;;;;10.60;5.45;;;2.40;99.90;;;;;;4955958;28;20031;-83
2022/02/08 03:04:51;;;;;;;11.88;5.82;;;2.40;99.90;;;;;;4955456;29;20384;-83
2022/02/08 03:20:47;;;;;;;13.90;5.50;;;2.20;99.90;;;;;;4955400;28;20051;-82
2022/02/08 03:23:14;;;;;;;11.70;5.20;;;2.20;99.90;;;;;;4955705;28;20042;-82
2022/02/08 03:25:40;;;;;;;11.77;6.00;;;2.40;99.90;;;;;;4954904;29;20031;-83
2022/02/08 03:28:05;;;;;;;13.35;5.85;;;2.30;99.90;;;;;;4955216;28;20031;-83
2022/02/08 03:30:31;;;;;;;10.48;5.28;;;2.30;99.90;;;;;;4954724;28;20404;-83
2022/02/08 03:32:57;;;;;;;10.20;5.40;;;2.30;99.90;;;;;;4955487;28;20113;-83
2022/02/08 03:35:22;;;;;;;10.88;5.35;;;2.30;99.90;;;;;;4955822;28;20039;-83
2022/02/08 03:38:04;;;;;;;13.80;5.40;;;2.20;99.90;;;;;;4954830;28;20020;-83
2022/02/08 03:43:12;;;;;;;15.25;6.03;;;2.10;99.90;;;;;;4955155;28;20039;-82
2022/02/08 03:45:38;;;;;;;11.77;5.50;;;2.00;99.90;;;;;;4954856;28;20043;-83
2022/02/08 03:48:05;;;;;;;10.90;5.30;;;1.70;99.90;;;;;;4954834;28;20480;-82
2022/02/08 03:50:30;;;;;;;12.00;6.30;;;1.80;99.90;;;;;;4955145;28;20031;-83
2022/02/08 03:52:56;;;;;;;13.85;5.78;;;1.80;99.90;;;;;;4954535;28;20041;-83
2022/02/08 03:55:22;;;;;;;15.50;6.35;;;1.70;99.90;;;;;;4954642;28;20507;-82
2022/02/08 03:57:48;;;;;;;11.15;5.53;;;1.70;99.90;;;;;;4955440;28;20436;-83
2022/02/08 04:00:15;;;;;;;12.57;5.30;;;1.70;99.90;;;;;;4954191;28;20105;-82
2022/02/08 04:02:45;;;;;;;14.68;5.78;;;1.70;99.90;;;;;;4954827;28;20066;-83
2022/02/08 04:07:45;;;;;;;9.50;5.28;;;1.80;99.90;;;;;;4954216;29;20031;-83
2022/02/08 04:10:19;;;;;;;13.73;5.47;;;1.90;99.90;;;;;;4954152;28;20089;-82
2022/02/08 04:12:56;;;;;;;9.55;5.57;;;1.90;99.90;;;;;;4954215;28;20051;-83
2022/02/08 04:15:46;;;;;;;10.32;5.20;;;1.90;99.90;;;;;;4954485;28;20039;-82
2022/02/08 04:32:44;;;;;;;13.38;5.85;;;1.90;99.90;;;;;;4951120;28;20114;-82
2022/02/08 04:42:24;;;;;;;14.75;6.40;;;1.60;99.90;;;;;;4953726;28;20504;-82
2022/02/08 04:45:08;;;;;;;11.55;5.40;;;1.60;99.90;;;;;;4954560;28;20042;-83
2022/02/08 04:48:43;;;;;;;11.43;5.57;;;1.50;99.90;;;;;;4954188;28;20031;-82
2022/02/08 04:50:30;;;;;;;12.23;5.95;;;1.50;99.90;;;;;;4924531;28;20031;-83
2022/02/08 04:53:03;;;;;;;10.73;5.70;;;1.60;99.90;;;;;;4954054;28;20031;-83
2022/02/08 04:58:13;;;;;;;12.60;5.65;;;1.40;99.90;;;;;;4955075;28;20044;-83
2022/02/08 05:46:57;;;;;;;12.23;6.45;;;1.40;99.90;;;;;;4956501;29;20111;-82
2022/02/08 05:49:39;;;;;;;10.38;6.07;;;1.30;99.90;;;;;;4957392;28;20039;-83
2022/02/08 05:54:37;;;;;;;10.95;5.55;;;1.10;99.90;;;;;;4956626;28;20027;-82
2022/02/08 05:57:03;;;;;;;12.30;6.25;;;1.10;99.90;;;;;;4957352;28;20029;-83
2022/02/08 05:59:28;;;;;;;12.52;6.18;;;1.10;99.90;;;;;;4957310;28;20484;-83
2022/02/08 06:01:54;;;;;;;16.30;6.75;;;1.10;99.90;;;;;;4956444;28;20035;-82
2022/02/08 06:04:20;;;;;;;16.65;6.57;;;1.10;99.90;;;;;;4957226;28;20035;-82
2022/02/08 06:06:45;;;;;;;13.88;6.72;;;1.10;99.90;;;;;;4957064;28;20408;-81
2022/02/08 06:09:11;;;;;;;12.38;6.47;;;1.20;99.90;;;;;;4957916;28;20023;-82
2022/02/08 06:11:38;;;;;;;12.70;6.22;;;1.10;99.90;;;;;;4957086;28;20106;-82
2022/02/08 06:14:05;;;;;;;14.45;6.47;;;1.10;99.90;;;;;;4957142;28;20444;-83
2022/02/08 06:16:32;;;;;;;12.00;6.22;;;1.20;99.90;;;;;;4956122;29;20032;-83
2022/02/08 06:18:57;;;;;;;12.50;6.13;;;1.20;99.90;;;;;;4956510;28;20034;-82
2022/02/08 06:21:24;;;;;;;12.00;7.03;;;1.30;99.90;;;;;;4956951;28;20106;-83
2022/02/08 06:23:49;;;;;;;15.90;6.80;;;1.20;99.90;;;;;;4956314;28;20073;-83
2022/02/08 06:26:16;;;;;;;13.75;7.10;;;1.10;99.90;;;;;;4942862;28;20055;-83
2022/02/08 06:28:43;;;;;;;12.30;7.07;;;1.00;99.90;;;;;;4955063;28;20054;-82
2022/02/08 06:31:09;;;;;;;14.68;7.35;;;1.00;99.90;;;;;;4956786;28;20031;-83
2022/02/08 06:33:35;;;;;;;18.23;7.53;;;1.50;99.90;;;;;;4956263;28;20031;-83
2022/02/08 06:36:01;;;;;;;15.43;7.65;;;1.00;99.90;;;;;;4958143;28;20028;-83
2022/02/08 06:38:27;;;;;;;11.88;7.18;;;1.00;99.90;;;;;;4956280;28;20031;-83
2022/02/08 06:40:54;;;;;;;12.80;7.10;;;1.00;99.90;;;;;;4955987;28;20042;-82
2022/02/08 06:43:21;;;;;;;19.85;8.48;;;1.10;99.90;;;;;;4956896;28;20385;-83
2022/02/08 06:45:47;;;;;;;17.40;10.00;;;1.10;99.90;;;;;;4956043;28;20507;-82
2022/02/08 06:48:13;;;;;;;24.33;11.18;;;1.20;99.90;;;;;;4956093;28;20087;-83
2022/02/08 06:50:39;;;;;;;15.90;7.85;;;1.20;99.90;;;;;;4956591;28;20090;-86
2022/02/08 06:53:05;;;;;;;16.27;7.80;;;1.10;99.90;;;;;;4956056;28;20027;-86
2022/02/08 06:55:31;;;;;;;15.40;6.75;;;1.10;99.90;;;;;;4955910;29;20126;-84
2022/02/08 07:00:38;;;;;;;15.75;6.80;;;1.10;99.90;;;;;;4956194;28;20404;-83
2022/02/08 07:03:09;;;;;;;18.20;7.38;;;1.10;99.90;;;;;;4955745;28;20027;-81
2022/02/08 07:05:35;;;;;;;14.25;6.82;;;1.10;99.90;;;;;;4940532;29;20484;-83
2022/02/08 07:08:01;;;;;;;14.82;7.13;;;1.30;99.90;;;;;;4955171;28;20489;-82
2022/02/08 07:10:28;;;;;;;15.77;6.57;;;1.40;99.90;;;;;;4952636;29;20063;-82
2022/02/08 07:12:55;;;;;;;12.05;6.43;;;1.50;99.90;;;;;;4956208;28;20027;-82
2022/02/08 07:15:21;;;;;;;13.45;7.30;;;1.50;99.90;;;;;;4955516;28;20540;-82
2022/02/08 07:17:47;;;;;;;13.80;6.97;;;1.50;99.90;;;;;;4955031;28;20078;-82
2022/02/08 07:20:13;;;;;;;13.35;6.38;;;2.10;99.90;;;;;;4955267;28;20110;-83
2022/02/08 07:22:39;;;;;;;17.58;7.28;;;2.10;99.90;;;;;;4954492;29;20106;-83
2022/02/08 07:25:06;;;;;;;15.45;7.22;;;1.60;99.90;;;;;;4955302;28;20137;-83
2022/02/08 07:27:31;;;;;;;16.95;7.72;;;1.40;99.90;;;;;;4955155;28;20019;-83
2022/02/08 07:29:58;;;;;;;14.85;7.47;;;1.30;99.90;;;;;;4955353;28;20074;-83
2022/02/08 07:32:35;;;;;;;15.25;8.02;;;1.20;99.90;;;;;;4955150;28;20436;-83
2022/02/08 07:38:08;;;;;;;16.85;8.45;;;0.90;99.90;;;;;;4954306;29;20082;-83
2022/02/08 07:43:02;;;;;;;15.90;8.82;;;1.30;99.90;;;;;;4955406;28;20050;-82
2022/02/08 07:45:28;;;;;;;19.58;10.55;;;1.50;99.90;;;;;;4954525;28;20081;-83
2022/02/08 07:47:55;;;;;;;21.13;9.95;;;1.60;99.90;;;;;;4954662;28;20396;-83
2022/02/08 07:50:27;;;;;;;17.83;8.50;;;1.70;99.90;;;;;;4956253;28;20030;-83
2022/02/08 07:52:54;;;;;;;17.58;8.60;;;2.40;99.90;;;;;;4954167;28;20047;-83
2022/02/08 07:55:21;;;;;;;14.38;8.27;;;2.00;99.90;;;;;;4949656;28;20492;-84
2022/02/08 07:57:48;;;;;;;20.88;8.73;;;2.80;99.90;;;;;;4942959;28;20407;-83
2022/02/08 08:00:14;;;;;;;15.23;9.00;;;2.90;99.90;;;;;;4947052;29;20020;-82
2022/02/08 08:02:40;;;;;;;14.50;8.70;;;2.30;99.90;;;;;;4938314;29;20045;-83
2022/02/08 08:05:07;;;;;;;16.05;8.85;;;2.30;99.90;;;;;;4950185;29;20019;-82
2022/02/08 08:07:34;;;;;;;17.45;7.85;;;2.60;99.90;;;;;;4949490;29;20555;-83
2022/02/08 08:10:01;;;;;;;15.05;8.13;;;3.70;99.90;;;;;;4940233;29;20394;-84
2022/02/08 08:12:28;;;;;;;16.67;7.70;;;6.00;99.90;;;;;;4945491;29;20051;-84
2022/02/08 08:14:56;;;;;;;18.83;9.43;;;7.40;99.90;;;;;;4951484;29;20126;-84
2022/02/08 08:19:53;;;;;;;13.90;8.15;;;8.90;99.90;;;;;;4951091;28;20511;-84
2022/02/08 08:22:19;;;;;;;14.93;7.97;;;9.90;99.90;;;;;;4925683;29;20037;-84
2022/02/08 08:24:47;;;;;;;19.35;7.50;;;12.10;99.90;;;;;;4940051;29;20038;-83
2022/02/08 08:27:14;;;;;;;13.50;7.32;;;14.50;99.90;;;;;;4943595;29;20027;-84
2022/02/08 08:29:44;;;;;;;15.18;7.53;;;16.00;99.90;;;;;;4949749;29;20124;-84
2022/02/08 08:32:10;;;;;;;12.18;7.55;;;16.80;99.90;;;;;;4950139;29;20082;-84
2022/02/08 08:34:37;;;;;;;16.83;7.65;;;17.20;99.90;;;;;;4937774;29;20059;-85
2022/02/08 08:37:04;;;;;;;13.23;7.50;;;18.00;99.90;;;;;;4945675;29;20034;-84
2022/02/08 08:39:45;;;;;;;12.88;8.05;;;18.70;99.90;;;;;;4949028;29;20034;-84
2022/02/08 08:42:31;;;;;;;15.85;7.35;;;17.90;99.90;;;;;;4949093;29;20031;-86
2022/02/08 08:50:33;;;;;;;16.15;7.53;;;20.70;99.90;;;;;;4934330;29;20023;-85
2022/02/08 08:52:59;;;;;;;11.80;8.00;;;20.70;99.90;;;;;;4957759;29;20035;-85
2022/02/08 08:55:24;;;;;;;19.20;8.50;;;20.60;99.90;;;;;;4957256;29;20074;-85
2022/02/08 08:57:50;;;;;;;16.20;8.00;;;21.50;99.90;;;;;;4955589;28;20035;-85
2022/02/08 09:00:16;;;;;;;18.77;9.00;;;22.00;99.90;;;;;;4957194;28;20030;-85
2022/02/08 09:02:41;;;;;;;14.10;8.85;;;22.30;99.90;;;;;;4954999;29;20464;-85
2022/02/08 09:05:11;;;;;;;14.50;8.50;;;22.40;99.90;;;;;;4957033;29;20127;-84
2022/02/08 09:07:40;;;;;;;17.63;9.07;;;23.10;99.90;;;;;;4958864;28;20407;-83
2022/02/08 09:10:07;;;;;;;17.45;8.20;;;23.70;99.90;;;;;;4957128;29;20039;-84
2022/02/08 09:15:24;;;;;;;13.10;8.07;;;25.10;99.90;;;;;;4956190;29;20375;-84
2022/02/08 09:18:49;;;;;;;12.40;7.93;;;24.20;99.90;;;;;;4960081;28;20476;-84
2022/02/08 09:21:18;;;;;;;12.60;7.78;;;24.80;99.90;;;;;;4937153;28;20058;-84
2022/02/08 09:31:05;;;;;;;17.10;8.80;;;26.30;99.90;;;;;;4959955;28;20026;-84
2022/02/08 09:33:30;;;;;;;14.88;9.32;;;26.00;99.90;;;;;;4959586;28;20031;-85
2022/02/08 09:35:56;;;;;;;13.18;8.30;;;26.30;99.90;;;;;;4959805;28;20400;-85
2022/02/08 09:38:23;;;;;;;15.82;8.18;;;26.90;99.90;;;;;;4960522;28;20138;-85
2022/02/08 09:40:52;;;;;;;10.18;6.63;;;25.70;99.90;;;;;;4959386;28;20473;-84
2022/02/08 09:43:19;;;;;;;13.63;6.97;;;26.30;99.90;;;;;;4959968;28;20023;-84
2022/02/08 09:45:49;;;;;;;17.00;7.85;;;26.90;99.90;;;;;;4959880;28;20094;-84
2022/02/08 09:48:26;;;;;;;13.85;8.10;;;27.00;99.90;;;;;;4959803;28;20094;-85
2022/02/08 09:50:52;;;;;;;12.20;8.10;;;27.40;99.90;;;;;;4960429;28;20035;-84
2022/02/08 09:53:30;;;;;;;14.00;7.57;;;27.50;99.90;;;;;;4959969;28;20499;-84
2022/02/08 09:55:56;;;;;;;11.77;7.43;;;26.90;99.90;;;;;;4956748;28;20109;-84
2022/02/08 09:58:21;;;;;;;12.27;8.07;;;27.90;99.90;;;;;;4959793;28;20023;-85
2022/02/08 10:00:47;;;;;;;16.35;8.00;;;27.80;99.90;;;;;;4945021;29;20039;-84
2022/02/08 10:03:19;;;;;;;12.80;7.78;;;28.90;99.90;;;;;;4956576;28;20023;-85
2022/02/08 10:05:51;;;;;;;14.25;7.32;;;28.50;99.90;;;;;;4957247;28;20039;-84
2022/02/08 10:08:18;;;;;;;10.80;6.38;;;28.40;99.90;;;;;;4941607;28;20117;-84
2022/02/08 10:10:45;;;;;;;13.40;6.60;;;29.00;99.90;;;;;;4956059;29;20031;-84
2022/02/08 10:13:59;;;;;;;9.68;6.43;;;29.40;99.90;;;;;;4957334;28;20031;-85
2022/02/08 10:22:08;;;;;;;9.18;5.70;;;29.20;99.90;;;;;;4956176;28;20396;-84
2022/02/08 10:24:38;;;;;;;8.43;5.82;;;29.80;99.90;;;;;;4956102;28;20023;-84
2022/02/08 10:27:27;;;;;;;11.25;5.90;;;29.90;99.90;;;;;;4956330;28;20508;-86
2022/02/08 10:40:15;;;;;;;8.60;4.20;;;30.60;99.90;;;;;;4955936;28;20579;-85
2022/02/08 10:42:48;;;;;;;10.63;5.45;;;32.70;99.90;;;;;;4955687;28;20051;-83
2022/02/08 10:45:26;;;;;;;7.88;5.45;;;31.50;99.90;;;;;;4955249;28;20036;-84
2022/02/08 10:48:03;;;;;;;8.85;5.72;;;31.90;99.90;;;;;;4955933;28;20483;-84
2022/02/08 10:50:31;;;;;;;10.77;4.78;;;31.80;99.90;;;;;;4956159;28;20031;-85
2022/02/08 10:52:59;;;;;;;7.47;4.80;;;32.00;99.90;;;;;;4955738;28;20528;-84
2022/02/08 10:55:51;;;;;;;10.05;5.45;;;31.40;99.90;;;;;;4955617;28;20027;-84
2022/02/08 10:58:24;;;;;;;11.48;5.97;;;31.40;99.90;;;;;;4955652;28;20047;-84
2022/02/08 11:03:39;;;;;;;8.55;5.55;;;31.90;99.90;;;;;;4955723;28;20034;-85
2022/02/08 11:06:17;;;;;;;9.20;5.13;;;31.20;99.90;;;;;;4955509;28;20587;-85
2022/02/08 11:09:16;;;;;;;7.72;4.57;;;31.60;99.90;;;;;;4956194;28;20072;-85
2022/02/08 11:12:30;;;;;;;7.50;5.07;;;31.20;99.90;;;;;;4943714;28;20027;-85
2022/02/08 11:15:38;;;;;;;9.30;5.40;;;31.90;99.90;;;;;;4940037;28;20047;-85
2022/02/08 11:20:30;;;;;;;9.23;4.72;;;30.80;99.90;;;;;;4940477;28;20069;-86
2022/02/08 11:27:56;;;;;;;6.28;3.90;;;30.60;99.90;;;;;;4954645;28;20035;-85
2022/02/08 11:30:43;;;;;;;6.45;3.00;;;30.20;99.90;;;;;;4955637;28;20288;-87
2022/02/08 11:47:23;;;;;;;7.30;4.95;;;31.00;99.90;;;;;;4954490;29;20043;-88
2022/02/08 12:07:25;;;;;;;6.15;3.92;;;30.50;99.90;;;;;;4954452;28;20069;-83
2022/02/08 12:49:41;;;;;;;5.68;3.50;;;28.60;99.90;;;;;;4954809;28;20114;-83
2022/02/08 12:57:40;;;;;;;5.85;3.22;;;27.30;99.90;;;;;;4953850;28;20031;-83
2022/02/08 14:06:01;;;;;;;6.88;3.70;;;24.00;99.90;;;;;;4919204;29;20036;-83
2022/02/08 14:19:30;;;;;;;8.20;3.45;;;22.60;99.90;;;;;;4918967;29;20147;-82
2022/02/08 14:22:16;;;;;;;6.95;3.28;;;23.40;99.90;;;;;;4919212;29;20052;-82
2022/02/08 14:25:16;;;;;;;8.05;3.65;;;23.70;99.90;;;;;;4918809;29;20028;-83
2022/02/08 14:30:27;;;;;;;6.57;3.80;;;23.40;99.90;;;;;;4956576;28;20500;-82
2022/02/08 14:33:08;;;;;;;6.93;3.80;;;23.50;99.90;;;;;;4956504;28;20031;-82
2022/02/08 15:05:54;;;;;;;7.90;3.40;;;20.90;99.90;;;;;;4833198;29;20080;-81
2022/02/08 15:08:28;;;;;;;10.23;3.50;;;21.10;99.90;;;;;;4829323;29;20037;-82
2022/02/08 15:10:56;;;;;;;6.95;3.88;;;21.00;99.90;;;;;;4858500;29;20053;-82
2022/02/08 15:13:25;;;;;;;8.75;3.55;;;20.10;99.90;;;;;;4857454;29;20065;-82
2022/02/08 15:18:27;;;;;;;6.18;3.10;;;20.40;99.90;;;;;;4857520;29;20081;-81
2022/02/08 15:20:53;;;;;;;8.43;3.35;;;19.90;99.90;;;;;;4857355;29;20054;-82
2022/02/08 15:23:21;;;;;;;5.68;3.10;;;19.90;99.90;;;;;;4858134;29;20505;-81
2022/02/08 15:25:47;;;;;;;8.77;3.00;;;20.70;99.90;;;;;;4858455;29;20120;-82
2022/02/08 15:28:13;;;;;;;6.20;2.65;;;21.00;99.90;;;;;;4857694;29;20486;-82
2022/02/08 15:30:40;;;;;;;6.55;2.75;;;20.50;99.90;;;;;;4883417;29;20080;-81
2022/02/08 15:33:08;;;;;;;7.13;2.80;;;20.40;99.90;;;;;;4898829;29;20036;-82
2022/02/08 15:35:34;;;;;;;9.13;3.70;;;20.40;99.90;;;;;;4899049;29;20104;-82
2022/02/08 15:38:00;;;;;;;4.32;2.80;;;20.20;99.90;;;;;;4948754;28;20484;-82
2022/02/08 15:40:26;;;;;;;7.53;4.88;;;19.70;99.90;;;;;;4954587;28;20027;-82
2022/02/08 15:42:52;;;;;;;9.43;4.10;;;19.90;99.90;;;;;;4955859;28;20027;-82
2022/02/08 15:45:29;;;;;;;6.60;4.00;;;19.50;99.90;;;;;;4940085;29;20039;-82
2022/02/08 15:47:58;;;;;;;7.47;3.88;;;20.00;99.90;;;;;;4954830;28;20030;-82
2022/02/08 15:51:15;;;;;;;7.55;3.75;;;19.90;99.90;;;;;;4954700;28;20144;-82
2022/02/08 15:53:29;;;;;;;5.55;2.95;;;19.60;99.90;;;;;;4946933;28;20488;-82
2022/02/08 15:56:23;;;;;;;7.32;3.35;;;19.30;99.90;;;;;;4951410;28;20031;-82
2022/02/08 16:01:14;;;;;;;7.78;3.75;;;18.80;99.90;;;;;;4953856;28;20035;-82
2022/02/08 16:09:20;;;;;;;5.75;3.55;;;17.80;99.90;;;;;;4954644;28;20035;-82
2022/02/08 16:11:59;;;;;;;6.05;2.83;;;18.20;99.90;;;;;;4955249;28;20036;-81
2022/02/08 16:20:17;;;;;;;8.25;3.60;;;18.00;99.90;;;;;;4953447;28;20058;-82
2022/02/08 16:46:08;;;;;;;11.88;4.43;;;15.60;99.90;;;;;;4895334;29;20133;-81
2022/02/08 16:54:59;;;;;;;8.63;3.85;;;13.80;99.90;;;;;;4894823;29;20638;-82
2022/02/08 16:59:53;;;;;;;9.25;4.20;;;13.20;99.90;;;;;;4894623;29;20036;-81
2022/02/08 17:02:21;;;;;;;8.18;3.60;;;13.00;99.90;;;;;;4894988;29;20079;-82
2022/02/08 17:04:47;;;;;;;8.07;3.90;;;12.90;99.90;;;;;;4894050;29;20465;-81
2022/02/08 17:07:13;;;;;;;8.27;3.50;;;12.80;99.90;;;;;;4894825;29;20041;-82
2022/02/08 17:12:52;;;;;;;8.32;4.38;;;12.60;99.90;;;;;;4938916;28;20047;-81
2022/02/08 17:15:38;;;;;;;9.43;4.13;;;11.90;99.90;;;;;;4958076;28;20035;-81
2022/02/08 17:48:02;;;;;;;9.25;4.70;;;10.70;99.90;;;;;;4867262;29;20044;-82
2022/02/08 17:50:28;;;;;;;11.38;5.22;;;10.60;99.90;;;;;;4864615;29;20089;-81
2022/02/08 17:52:55;;;;;;;12.65;5.18;;;10.70;99.90;;;;;;4863251;29;20463;-81
2022/02/08 17:55:22;;;;;;;11.68;5.30;;;10.60;99.90;;;;;;4864867;29;20034;-81
2022/02/08 17:57:49;;;;;;;12.10;5.30;;;10.40;99.90;;;;;;4867516;29;20037;-81
2022/02/08 18:00:16;;;;;;;11.98;5.45;;;10.30;99.90;;;;;;4867014;29;20491;-81
2022/02/08 18:02:47;;;;;;;11.57;5.32;;;10.00;99.90;;;;;;4865927;29;20105;-82
2022/02/08 18:05:14;;;;;;;10.95;5.65;;;10.10;99.90;;;;;;4863019;29;20097;-81
2022/02/08 18:07:40;;;;;;;10.88;5.82;;;9.90;99.90;;;;;;4864310;29;20454;-81
2022/02/08 18:10:07;;;;;;;10.55;5.93;;;9.80;99.90;;;;;;4866740;29;20487;-81
2022/02/08 18:12:39;;;;;;;12.35;6.43;;;9.60;99.90;;;;;;4867357;29;20037;-82
2022/02/08 18:15:10;;;;;;;15.38;8.57;;;9.60;99.90;;;;;;4866339;29;20115;-81
2022/02/08 18:18:00;;;;;;;13.43;7.18;;;9.80;99.90;;;;;;4881503;29;20047;-82
2022/02/08 18:23:09;;;;;;;12.13;7.53;;;9.60;99.90;;;;;;4913505;29;20044;-81
2022/02/08 18:26:05;;;;;;;14.68;7.93;;;10.00;99.90;;;;;;4934866;29;20051;-82
2022/02/08 18:28:59;;;;;;;17.75;7.68;;;9.40;99.90;;;;;;4934276;29;20028;-81
2022/02/08 18:56:25;;;;;;;17.80;11.60;;;8.50;99.90;;;;;;4933275;29;20566;-81
2022/02/08 19:15:15;;;;;;;24.98;12.43;;;7.80;99.90;;;;;;4937358;29;20086;-81
2022/02/08 19:20:27;;;;;;;15.45;10.15;;;7.20;99.90;;;;;;4908095;29;20068;-81
2022/02/08 19:22:53;;;;;;;18.55;10.15;;;7.80;99.90;;;;;;4914291;29;20501;-82
2022/02/08 19:25:19;;;;;;;17.63;10.70;;;7.60;99.90;;;;;;4915564;29;20040;-81
2022/02/08 19:27:45;;;;;;;20.65;10.73;;;7.70;99.90;;;;;;4914701;29;20032;-81
2022/02/08 19:30:13;;;;;;;15.98;10.60;;;7.10;99.90;;;;;;4915192;29;20378;-82
2022/02/08 19:32:40;;;;;;;16.10;10.40;;;7.10;99.90;;;;;;4914873;29;20048;-81
2022/02/08 19:35:07;;;;;;;18.73;10.50;;;7.50;99.90;;;;;;4915535;29;20059;-81
2022/02/08 19:37:35;;;;;;;17.27;9.48;;;7.10;99.90;;;;;;4913923;29;20131;-82
2022/02/08 19:40:00;;;;;;;16.13;9.18;;;7.10;99.90;;;;;;4914936;29;20560;-82
2022/02/08 19:42:26;;;;;;;15.30;9.70;;;6.80;99.90;;;;;;4915024;29;20119;-81
2022/02/08 19:44:57;;;;;;;15.73;9.10;;;6.50;99.90;;;;;;4899830;29;20052;-81
2022/02/08 19:47:24;;;;;;;14.40;9.10;;;6.70;99.90;;;;;;4877283;29;20090;-82
2022/02/08 19:49:51;;;;;;;16.30;9.13;;;6.90;99.90;;;;;;4877226;29;20032;-82
2022/02/08 19:52:20;;;;;;;17.10;9.27;;;6.40;99.90;;;;;;4877236;29;20138;-81
2022/02/08 19:55:06;;;;;;;19.50;9.70;;;7.00;99.90;;;;;;4877098;29;20501;-81
2022/02/08 19:57:31;;;;;;;17.58;8.90;;;6.40;99.90;;;;;;4907782;29;20039;-82
2022/02/08 19:59:58;;;;;;;15.07;9.27;;;6.40;99.90;;;;;;4935782;29;20079;-81
2022/02/08 20:02:27;;;;;;;19.30;9.43;;;6.40;99.90;;;;;;4935779;29;20511;-81
2022/02/08 20:04:53;;;;;;;13.77;8.65;;;6.80;99.90;;;;;;4935520;29;20440;-82
2022/02/08 20:07:18;;;;;;;17.25;9.90;;;6.50;99.90;;;;;;4935274;29;20083;-81
2022/02/08 20:09:44;;;;;;;16.70;10.63;;;6.50;99.90;;;;;;4935239;29;20476;-82
2022/02/08 20:12:10;;;;;;;18.90;10.85;;;6.40;99.90;;;;;;4933776;29;20389;-82
2022/02/08 20:14:36;;;;;;;15.20;10.63;;;6.70;99.90;;;;;;4930907;29;20118;-81
2022/02/08 20:17:02;;;;;;;18.98;10.77;;;6.00;99.90;;;;;;4935768;29;20023;-81
2022/02/08 20:19:28;;;;;;;17.60;11.40;;;5.60;99.90;;;;;;4939500;28;20085;-80
2022/02/08 20:22:01;;;;;;;16.45;10.52;;;5.40;99.90;;;;;;4939498;29;20038;-80
2022/02/08 20:24:27;;;;;;;17.58;10.65;;;5.60;99.90;;;;;;4954316;28;20468;-80
2022/02/08 20:27:28;;;;;;;20.50;10.57;;;6.20;99.90;;;;;;4954463;28;20080;-81
2022/02/08 20:29:46;;;;;;;20.88;10.85;;;5.70;99.90;;;;;;4954648;28;20110;-82
2022/02/08 20:32:13;;;;;;;16.15;9.82;;;5.80;99.90;;;;;;4954629;28;20042;-85
2022/02/08 20:34:39;;;;;;;17.35;10.38;;;6.30;99.90;;;;;;4953471;28;20027;-85
2022/02/08 20:37:06;;;;;;;16.85;10.55;;;5.80;99.90;;;;;;4954288;28;20046;-87
2022/02/08 20:39:32;;;;;;;16.60;10.07;;;5.70;99.90;;;;;;4954031;28;20031;-85
2022/02/08 20:42:02;;;;;;;19.55;10.50;;;5.80;99.90;;;;;;4954254;28;20035;-86
2022/02/08 20:44:28;;;;;;;25.02;13.35;;;6.00;99.90;;;;;;4954371;28;20032;-85
2022/02/08 20:47:02;;;;;;;19.10;12.38;;;5.90;99.90;;;;;;4952769;28;20408;-86
2022/02/08 20:49:28;;;;;;;23.35;12.60;;;5.40;99.90;;;;;;4955542;28;20040;-86
2022/02/08 20:51:53;;;;;;;20.90;11.90;;;5.20;99.90;;;;;;4954198;28;20539;-85
2022/02/08 20:54:25;;;;;;;21.63;12.48;;;5.80;99.90;;;;;;4953592;28;20495;-84
2022/02/08 20:57:02;;;;;;;19.88;11.38;;;5.30;99.90;;;;;;4954089;28;20031;-85
2022/02/08 20:59:31;;;;;;;19.50;11.93;;;5.20;99.90;;;;;;4940539;28;20491;-84